sensor_id;sensor_type;location;lat;lon;timestamp;P1;durP1;ratioP1;P2;durP2;ratioP2
71046;SDS011;58703;48.978;8.982;2022-10-17T00:01:39;5.45;;;2.67;;
71046;SDS011;58703;48.978;8.982;2022-10-17T00:04:05;6.35;;;2.55;;
71046;SDS011;58703;48.978;8.982;2022-10-17T00:06:30;13.20;;;6.07;;
71046;SDS011;58703;48.978;8.982;2022-10-17T00:08:56;10.73;;;3.80;;
71046;SDS011;58703;48.978;8.982;2022-10-17T00:11:22;12.27;;;5.70;;
71046;SDS011;58703;48.978;8.982;2022-10-17T00:13:48;18.95;;;9.10;;
71046;SDS011;58703;48.978;8.982;2022-10-17T00:16:22;19.47;;;6.97;;
71046;SDS011;58703;48.978;8.982;2022-10-17T00:18:50;9.80;;;4.85;;
71046;SDS011;58703;48.978;8.982;2022-10-17T00:21:16;12.77;;;4.50;;
71046;SDS011;58703;48.978;8.982;2022-10-17T00:23:43;7.05;;;4.03;;
71046;SDS011;58703;48.978;8.982;2022-10-17T00:26:10;6.97;;;4.73;;
71046;SDS011;58703;48.978;8.982;2022-10-17T00:28:37;10.90;;;5.38;;
71046;SDS011;58703;48.978;8.982;2022-10-17T00:31:04;6.75;;;4.65;;
71046;SDS011;58703;48.978;8.982;2022-10-17T00:33:32;10.00;;;4.63;;
71046;SDS011;58703;48.978;8.982;2022-10-17T00:38:27;10.87;;;4.70;;
71046;SDS011;58703;48.978;8.982;2022-10-17T00:40:53;7.20;;;4.28;;
71046;SDS011;58703;48.978;8.982;2022-10-17T00:43:19;6.93;;;4.10;;
71046;SDS011;58703;48.978;8.982;2022-10-17T00:45:45;6.22;;;4.07;;
71046;SDS011;58703;48.978;8.982;2022-10-17T00:48:10;8.90;;;4.13;;
71046;SDS011;58703;48.978;8.982;2022-10-17T00:50:38;7.93;;;4.70;;
71046;SDS011;58703;48.978;8.982;2022-10-17T00:53:05;5.60;;;3.65;;
71046;SDS011;58703;48.978;8.982;2022-10-17T00:55:33;4.88;;;2.85;;
71046;SDS011;58703;48.978;8.982;2022-10-17T00:58:02;6.75;;;3.40;;
71046;SDS011;58703;48.978;8.982;2022-10-17T01:00:31;8.37;;;3.77;;
71046;SDS011;58703;48.978;8.982;2022-10-17T01:02:56;6.72;;;4.05;;
71046;SDS011;58703;48.978;8.982;2022-10-17T01:05:22;5.78;;;3.78;;
71046;SDS011;58703;48.978;8.982;2022-10-17T01:07:48;5.70;;;4.40;;
71046;SDS011;58703;48.978;8.982;2022-10-17T01:10:16;7.40;;;4.28;;
71046;SDS011;58703;48.978;8.982;2022-10-17T01:13:17;8.02;;;4.03;;
71046;SDS011;58703;48.978;8.982;2022-10-17T01:15:50;6.47;;;2.80;;
71046;SDS011;58703;48.978;8.982;2022-10-17T01:18:31;6.60;;;3.23;;
71046;SDS011;58703;48.978;8.982;2022-10-17T01:32:30;8.03;;;2.50;;
71046;SDS011;58703;48.978;8.982;2022-10-17T01:35:03;2.10;;;1.83;;
71046;SDS011;58703;48.978;8.982;2022-10-17T01:37:46;3.78;;;1.70;;
71046;SDS011;58703;48.978;8.982;2022-10-17T01:40:16;5.18;;;2.60;;
71046;SDS011;58703;48.978;8.982;2022-10-17T01:48:07;8.48;;;2.47;;
71046;SDS011;58703;48.978;8.982;2022-10-17T01:50:40;5.40;;;2.17;;
71046;SDS011;58703;48.978;8.982;2022-10-17T01:53:18;4.40;;;2.65;;
71046;SDS011;58703;48.978;8.982;2022-10-17T01:55:50;6.15;;;3.08;;
71046;SDS011;58703;48.978;8.982;2022-10-17T01:58:37;5.37;;;2.23;;
71046;SDS011;58703;48.978;8.982;2022-10-17T02:01:07;5.15;;;2.60;;
71046;SDS011;58703;48.978;8.982;2022-10-17T02:03:36;3.80;;;2.75;;
71046;SDS011;58703;48.978;8.982;2022-10-17T02:06:05;2.88;;;2.30;;
71046;SDS011;58703;48.978;8.982;2022-10-17T02:08:44;3.85;;;2.38;;
71046;SDS011;58703;48.978;8.982;2022-10-17T02:11:13;2.00;;;1.83;;
71046;SDS011;58703;48.978;8.982;2022-10-17T02:19:11;4.78;;;2.10;;
71046;SDS011;58703;48.978;8.982;2022-10-17T02:22:10;2.83;;;1.92;;
71046;SDS011;58703;48.978;8.982;2022-10-17T02:24:50;4.57;;;2.47;;
71046;SDS011;58703;48.978;8.982;2022-10-17T02:27:30;6.57;;;1.92;;
71046;SDS011;58703;48.978;8.982;2022-10-17T02:30:11;2.25;;;1.48;;
71046;SDS011;58703;48.978;8.982;2022-10-17T02:32:58;7.25;;;1.92;;
71046;SDS011;58703;48.978;8.982;2022-10-17T02:35:46;4.40;;;1.80;;
71046;SDS011;58703;48.978;8.982;2022-10-17T02:38:16;2.70;;;1.50;;
71046;SDS011;58703;48.978;8.982;2022-10-17T02:40:42;5.57;;;2.00;;
71046;SDS011;58703;48.978;8.982;2022-10-17T02:43:09;4.72;;;1.95;;
71046;SDS011;58703;48.978;8.982;2022-10-17T02:45:38;4.10;;;2.50;;
71046;SDS011;58703;48.978;8.982;2022-10-17T02:48:16;4.20;;;2.17;;
71046;SDS011;58703;48.978;8.982;2022-10-17T02:53:35;3.88;;;2.75;;
71046;SDS011;58703;48.978;8.982;2022-10-17T02:56:15;8.10;;;2.40;;
71046;SDS011;58703;48.978;8.982;2022-10-17T02:58:45;3.95;;;2.60;;
71046;SDS011;58703;48.978;8.982;2022-10-17T03:01:14;7.45;;;2.63;;
71046;SDS011;58703;48.978;8.982;2022-10-17T03:03:41;5.80;;;2.20;;
71046;SDS011;58703;48.978;8.982;2022-10-17T03:06:06;9.30;;;2.55;;
71046;SDS011;58703;48.978;8.982;2022-10-17T03:08:32;4.97;;;2.30;;
71046;SDS011;58703;48.978;8.982;2022-10-17T03:10:57;3.00;;;2.57;;
71046;SDS011;58703;48.978;8.982;2022-10-17T03:13:23;6.63;;;2.25;;
71046;SDS011;58703;48.978;8.982;2022-10-17T03:15:49;5.93;;;2.07;;
71046;SDS011;58703;48.978;8.982;2022-10-17T03:18:14;4.03;;;2.00;;
71046;SDS011;58703;48.978;8.982;2022-10-17T03:20:40;2.10;;;1.60;;
71046;SDS011;58703;48.978;8.982;2022-10-17T03:23:06;2.10;;;1.90;;
71046;SDS011;58703;48.978;8.982;2022-10-17T03:25:31;6.18;;;1.90;;
71046;SDS011;58703;48.978;8.982;2022-10-17T03:27:58;6.30;;;2.83;;
71046;SDS011;58703;48.978;8.982;2022-10-17T03:30:24;4.68;;;1.92;;
71046;SDS011;58703;48.978;8.982;2022-10-17T03:32:50;6.90;;;2.45;;
71046;SDS011;58703;48.978;8.982;2022-10-17T03:35:16;3.05;;;2.30;;
71046;SDS011;58703;48.978;8.982;2022-10-17T03:37:42;4.60;;;2.50;;
71046;SDS011;58703;48.978;8.982;2022-10-17T03:40:07;3.60;;;2.27;;
71046;SDS011;58703;48.978;8.982;2022-10-17T03:42:34;4.18;;;2.95;;
71046;SDS011;58703;48.978;8.982;2022-10-17T03:45:01;8.43;;;2.95;;
71046;SDS011;58703;48.978;8.982;2022-10-17T03:47:28;9.57;;;2.50;;
71046;SDS011;58703;48.978;8.982;2022-10-17T03:49:55;4.57;;;3.17;;
71046;SDS011;58703;48.978;8.982;2022-10-17T03:52:21;7.60;;;2.33;;
71046;SDS011;58703;48.978;8.982;2022-10-17T03:54:49;5.03;;;2.05;;
71046;SDS011;58703;48.978;8.982;2022-10-17T03:57:19;3.88;;;2.55;;
71046;SDS011;58703;48.978;8.982;2022-10-17T03:59:45;6.05;;;3.58;;
71046;SDS011;58703;48.978;8.982;2022-10-17T04:02:12;3.03;;;2.37;;
71046;SDS011;58703;48.978;8.982;2022-10-17T04:04:38;4.35;;;2.45;;
71046;SDS011;58703;48.978;8.982;2022-10-17T04:07:04;4.97;;;2.25;;
71046;SDS011;58703;48.978;8.982;2022-10-17T04:09:31;4.40;;;2.47;;
71046;SDS011;58703;48.978;8.982;2022-10-17T04:11:58;4.07;;;2.50;;
71046;SDS011;58703;48.978;8.982;2022-10-17T04:14:24;7.93;;;2.22;;
71046;SDS011;58703;48.978;8.982;2022-10-17T04:16:50;2.73;;;2.17;;
71046;SDS011;58703;48.978;8.982;2022-10-17T04:19:16;4.18;;;1.85;;
71046;SDS011;58703;48.978;8.982;2022-10-17T04:21:42;2.00;;;1.50;;
71046;SDS011;58703;48.978;8.982;2022-10-17T04:24:09;3.58;;;1.77;;
71046;SDS011;58703;48.978;8.982;2022-10-17T04:26:37;3.53;;;1.95;;
71046;SDS011;58703;48.978;8.982;2022-10-17T04:29:04;2.87;;;1.93;;
71046;SDS011;58703;48.978;8.982;2022-10-17T04:31:30;7.90;;;1.98;;
71046;SDS011;58703;48.978;8.982;2022-10-17T04:33:57;4.45;;;3.95;;
71046;SDS011;58703;48.978;8.982;2022-10-17T04:36:23;5.90;;;4.87;;
71046;SDS011;58703;48.978;8.982;2022-10-17T04:38:48;9.93;;;5.50;;
71046;SDS011;58703;48.978;8.982;2022-10-17T04:41:16;6.43;;;4.13;;
71046;SDS011;58703;48.978;8.982;2022-10-17T04:43:42;11.60;;;4.97;;
71046;SDS011;58703;48.978;8.982;2022-10-17T04:46:10;13.82;;;5.10;;
71046;SDS011;58703;48.978;8.982;2022-10-17T04:48:39;14.60;;;5.82;;
71046;SDS011;58703;48.978;8.982;2022-10-17T04:51:07;8.23;;;4.23;;
71046;SDS011;58703;48.978;8.982;2022-10-17T04:53:37;11.63;;;4.15;;
71046;SDS011;58703;48.978;8.982;2022-10-17T04:56:11;5.82;;;4.10;;
71046;SDS011;58703;48.978;8.982;2022-10-17T04:58:39;7.13;;;3.83;;
71046;SDS011;58703;48.978;8.982;2022-10-17T05:01:06;6.25;;;4.03;;
71046;SDS011;58703;48.978;8.982;2022-10-17T05:03:34;3.57;;;2.60;;
71046;SDS011;58703;48.978;8.982;2022-10-17T05:06:05;5.80;;;3.08;;
71046;SDS011;58703;48.978;8.982;2022-10-17T05:08:34;5.50;;;2.55;;
71046;SDS011;58703;48.978;8.982;2022-10-17T05:11:01;7.60;;;3.30;;
71046;SDS011;58703;48.978;8.982;2022-10-17T05:13:29;5.25;;;2.60;;
71046;SDS011;58703;48.978;8.982;2022-10-17T05:16:00;4.93;;;2.53;;
71046;SDS011;58703;48.978;8.982;2022-10-17T05:18:26;4.10;;;2.15;;
71046;SDS011;58703;48.978;8.982;2022-10-17T05:20:52;3.30;;;2.42;;
71046;SDS011;58703;48.978;8.982;2022-10-17T05:23:18;5.63;;;2.50;;
71046;SDS011;58703;48.978;8.982;2022-10-17T05:25:44;2.77;;;2.27;;
71046;SDS011;58703;48.978;8.982;2022-10-17T05:28:09;6.22;;;2.30;;
71046;SDS011;58703;48.978;8.982;2022-10-17T05:30:35;2.80;;;1.90;;
71046;SDS011;58703;48.978;8.982;2022-10-17T05:33:01;3.42;;;2.08;;
71046;SDS011;58703;48.978;8.982;2022-10-17T05:35:27;2.27;;;2.07;;
71046;SDS011;58703;48.978;8.982;2022-10-17T05:37:53;7.13;;;2.58;;
71046;SDS011;58703;48.978;8.982;2022-10-17T05:40:18;3.83;;;2.90;;
71046;SDS011;58703;48.978;8.982;2022-10-17T05:42:45;4.72;;;2.60;;
71046;SDS011;58703;48.978;8.982;2022-10-17T05:45:11;6.57;;;2.60;;
71046;SDS011;58703;48.978;8.982;2022-10-17T05:47:37;9.80;;;2.57;;
71046;SDS011;58703;48.978;8.982;2022-10-17T05:50:03;5.90;;;2.50;;
71046;SDS011;58703;48.978;8.982;2022-10-17T05:52:29;5.60;;;3.20;;
71046;SDS011;58703;48.978;8.982;2022-10-17T05:54:55;5.33;;;2.67;;
71046;SDS011;58703;48.978;8.982;2022-10-17T05:57:23;5.13;;;3.37;;
71046;SDS011;58703;48.978;8.982;2022-10-17T05:59:49;10.73;;;4.68;;
71046;SDS011;58703;48.978;8.982;2022-10-17T06:02:15;9.32;;;3.75;;
71046;SDS011;58703;48.978;8.982;2022-10-17T06:04:40;8.77;;;3.70;;
71046;SDS011;58703;48.978;8.982;2022-10-17T06:07:09;8.07;;;3.40;;
71046;SDS011;58703;48.978;8.982;2022-10-17T06:09:36;6.20;;;3.20;;
71046;SDS011;58703;48.978;8.982;2022-10-17T06:12:01;9.53;;;4.07;;
71046;SDS011;58703;48.978;8.982;2022-10-17T06:14:27;4.90;;;2.60;;
71046;SDS011;58703;48.978;8.982;2022-10-17T06:16:53;3.20;;;2.10;;
71046;SDS011;58703;48.978;8.982;2022-10-17T06:19:18;3.53;;;1.83;;
71046;SDS011;58703;48.978;8.982;2022-10-17T06:21:44;5.97;;;2.50;;
71046;SDS011;58703;48.978;8.982;2022-10-17T06:24:10;3.00;;;2.53;;
71046;SDS011;58703;48.978;8.982;2022-10-17T06:26:35;2.73;;;2.13;;
71046;SDS011;58703;48.978;8.982;2022-10-17T06:29:01;8.48;;;3.70;;
71046;SDS011;58703;48.978;8.982;2022-10-17T06:31:27;3.20;;;2.70;;
71046;SDS011;58703;48.978;8.982;2022-10-17T06:33:52;5.65;;;3.78;;
71046;SDS011;58703;48.978;8.982;2022-10-17T06:36:18;5.90;;;2.87;;
71046;SDS011;58703;48.978;8.982;2022-10-17T06:38:44;6.07;;;2.90;;
71046;SDS011;58703;48.978;8.982;2022-10-17T06:41:13;8.20;;;3.13;;
71046;SDS011;58703;48.978;8.982;2022-10-17T06:43:43;5.97;;;3.25;;
71046;SDS011;58703;48.978;8.982;2022-10-17T06:46:11;15.00;;;4.95;;
71046;SDS011;58703;48.978;8.982;2022-10-17T06:48:37;9.98;;;3.90;;
71046;SDS011;58703;48.978;8.982;2022-10-17T06:51:04;11.57;;;4.23;;
71046;SDS011;58703;48.978;8.982;2022-10-17T06:53:31;16.27;;;5.13;;
71046;SDS011;58703;48.978;8.982;2022-10-17T06:55:58;10.55;;;5.63;;
71046;SDS011;58703;48.978;8.982;2022-10-17T06:58:29;12.23;;;6.30;;
71046;SDS011;58703;48.978;8.982;2022-10-17T07:00:57;16.55;;;6.22;;
71046;SDS011;58703;48.978;8.982;2022-10-17T07:03:26;11.77;;;5.87;;
71046;SDS011;58703;48.978;8.982;2022-10-17T07:05:52;7.63;;;4.22;;
71046;SDS011;58703;48.978;8.982;2022-10-17T07:08:18;5.75;;;4.20;;
71046;SDS011;58703;48.978;8.982;2022-10-17T07:10:44;7.57;;;4.73;;
71046;SDS011;58703;48.978;8.982;2022-10-17T07:13:09;7.60;;;4.13;;
71046;SDS011;58703;48.978;8.982;2022-10-17T07:15:35;12.07;;;4.03;;
71046;SDS011;58703;48.978;8.982;2022-10-17T07:18:02;9.85;;;4.20;;
71046;SDS011;58703;48.978;8.982;2022-10-17T07:20:27;7.80;;;3.30;;
71046;SDS011;58703;48.978;8.982;2022-10-17T07:22:53;9.02;;;4.90;;
71046;SDS011;58703;48.978;8.982;2022-10-17T07:25:19;7.90;;;3.20;;
71046;SDS011;58703;48.978;8.982;2022-10-17T07:27:44;8.00;;;3.53;;
71046;SDS011;58703;48.978;8.982;2022-10-17T07:30:10;8.90;;;3.60;;
71046;SDS011;58703;48.978;8.982;2022-10-17T07:32:36;6.07;;;2.95;;
71046;SDS011;58703;48.978;8.982;2022-10-17T07:35:02;7.22;;;4.05;;
71046;SDS011;58703;48.978;8.982;2022-10-17T07:37:28;11.03;;;3.27;;
71046;SDS011;58703;48.978;8.982;2022-10-17T07:39:53;5.43;;;2.95;;
71046;SDS011;58703;48.978;8.982;2022-10-17T07:42:20;4.75;;;2.97;;
71046;SDS011;58703;48.978;8.982;2022-10-17T07:44:47;10.68;;;3.25;;
71046;SDS011;58703;48.978;8.982;2022-10-17T07:47:12;9.37;;;3.30;;
71046;SDS011;58703;48.978;8.982;2022-10-17T07:49:38;4.73;;;3.17;;
71046;SDS011;58703;48.978;8.982;2022-10-17T07:52:10;4.97;;;2.67;;
71046;SDS011;58703;48.978;8.982;2022-10-17T07:54:36;8.85;;;3.20;;
71046;SDS011;58703;48.978;8.982;2022-10-17T07:57:02;6.20;;;3.08;;
71046;SDS011;58703;48.978;8.982;2022-10-17T07:59:28;11.93;;;2.77;;
71046;SDS011;58703;48.978;8.982;2022-10-17T08:01:54;6.95;;;2.85;;
71046;SDS011;58703;48.978;8.982;2022-10-17T08:04:21;11.30;;;2.88;;
71046;SDS011;58703;48.978;8.982;2022-10-17T08:06:48;6.10;;;2.90;;
71046;SDS011;58703;48.978;8.982;2022-10-17T08:09:14;5.47;;;3.10;;
71046;SDS011;58703;48.978;8.982;2022-10-17T08:11:40;4.85;;;2.90;;
71046;SDS011;58703;48.978;8.982;2022-10-17T08:14:08;9.55;;;3.08;;
71046;SDS011;58703;48.978;8.982;2022-10-17T08:16:35;9.57;;;3.22;;
71046;SDS011;58703;48.978;8.982;2022-10-17T08:19:00;5.23;;;2.90;;
71046;SDS011;58703;48.978;8.982;2022-10-17T08:21:26;7.13;;;3.40;;
71046;SDS011;58703;48.978;8.982;2022-10-17T08:23:52;8.68;;;3.17;;
71046;SDS011;58703;48.978;8.982;2022-10-17T08:26:18;6.30;;;3.30;;
71046;SDS011;58703;48.978;8.982;2022-10-17T08:28:44;5.93;;;3.20;;
71046;SDS011;58703;48.978;8.982;2022-10-17T08:31:12;8.50;;;3.15;;
71046;SDS011;58703;48.978;8.982;2022-10-17T08:33:39;6.32;;;2.70;;
71046;SDS011;58703;48.978;8.982;2022-10-17T08:36:06;8.85;;;3.10;;
71046;SDS011;58703;48.978;8.982;2022-10-17T08:38:33;11.27;;;2.90;;
71046;SDS011;58703;48.978;8.982;2022-10-17T08:41:00;10.83;;;5.40;;
71046;SDS011;58703;48.978;8.982;2022-10-17T08:46:12;5.53;;;3.22;;
71046;SDS011;58703;48.978;8.982;2022-10-17T08:48:40;8.40;;;3.13;;
71046;SDS011;58703;48.978;8.982;2022-10-17T08:51:20;6.13;;;2.67;;
71046;SDS011;58703;48.978;8.982;2022-10-17T08:53:55;4.63;;;2.77;;
71046;SDS011;58703;48.978;8.982;2022-10-17T08:56:29;5.95;;;2.42;;
71046;SDS011;58703;48.978;8.982;2022-10-17T08:58:59;8.75;;;2.17;;
71046;SDS011;58703;48.978;8.982;2022-10-17T09:01:35;2.90;;;2.57;;
71046;SDS011;58703;48.978;8.982;2022-10-17T09:07:16;8.52;;;2.63;;
71046;SDS011;58703;48.978;8.982;2022-10-17T09:09:54;7.93;;;2.33;;
71046;SDS011;58703;48.978;8.982;2022-10-17T09:12:36;10.10;;;2.90;;
71046;SDS011;58703;48.978;8.982;2022-10-17T09:17:52;7.15;;;3.13;;
71046;SDS011;58703;48.978;8.982;2022-10-17T09:20:42;10.18;;;2.40;;
71046;SDS011;58703;48.978;8.982;2022-10-17T09:23:15;4.97;;;2.10;;
71046;SDS011;58703;48.978;8.982;2022-10-17T09:25:45;7.47;;;2.10;;
71046;SDS011;58703;48.978;8.982;2022-10-17T09:28:18;6.63;;;2.30;;
71046;SDS011;58703;48.978;8.982;2022-10-17T09:30:46;7.20;;;2.67;;
71046;SDS011;58703;48.978;8.982;2022-10-17T09:33:43;6.47;;;2.88;;
71046;SDS011;58703;48.978;8.982;2022-10-17T09:36:15;9.68;;;2.38;;
71046;SDS011;58703;48.978;8.982;2022-10-17T09:38:44;6.38;;;2.28;;
71046;SDS011;58703;48.978;8.982;2022-10-17T09:41:15;9.53;;;3.10;;
71046;SDS011;58703;48.978;8.982;2022-10-17T09:43:45;6.38;;;2.70;;
71046;SDS011;58703;48.978;8.982;2022-10-17T09:48:57;4.60;;;2.00;;
71046;SDS011;58703;48.978;8.982;2022-10-17T09:51:35;6.47;;;2.50;;
71046;SDS011;58703;48.978;8.982;2022-10-17T09:54:02;4.70;;;2.50;;
71046;SDS011;58703;48.978;8.982;2022-10-17T09:56:31;3.20;;;2.40;;
71046;SDS011;58703;48.978;8.982;2022-10-17T09:59:32;6.30;;;2.38;;
71046;SDS011;58703;48.978;8.982;2022-10-17T10:04:50;4.22;;;2.10;;
71046;SDS011;58703;48.978;8.982;2022-10-17T10:07:20;4.20;;;2.33;;
71046;SDS011;58703;48.978;8.982;2022-10-17T10:09:47;7.80;;;2.47;;
71046;SDS011;58703;48.978;8.982;2022-10-17T10:12:25;6.65;;;1.95;;
71046;SDS011;58703;48.978;8.982;2022-10-17T10:14:52;7.97;;;2.90;;
71046;SDS011;58703;48.978;8.982;2022-10-17T10:17:38;5.43;;;2.83;;
71046;SDS011;58703;48.978;8.982;2022-10-17T10:23:10;6.90;;;2.95;;
71046;SDS011;58703;48.978;8.982;2022-10-17T10:25:58;3.75;;;2.10;;
71046;SDS011;58703;48.978;8.982;2022-10-17T10:28:30;6.00;;;2.42;;
71046;SDS011;58703;48.978;8.982;2022-10-17T10:30:59;9.35;;;2.33;;
71046;SDS011;58703;48.978;8.982;2022-10-17T10:33:29;3.37;;;1.80;;
71046;SDS011;58703;48.978;8.982;2022-10-17T10:35:58;6.13;;;2.60;;
71046;SDS011;58703;48.978;8.982;2022-10-17T10:38:26;4.97;;;2.50;;
71046;SDS011;58703;48.978;8.982;2022-10-17T10:40:56;5.30;;;2.13;;
71046;SDS011;58703;48.978;8.982;2022-10-17T10:51:24;3.75;;;2.38;;
71046;SDS011;58703;48.978;8.982;2022-10-17T10:53:58;11.30;;;2.38;;
71046;SDS011;58703;48.978;8.982;2022-10-17T10:56:42;6.30;;;2.72;;
71046;SDS011;58703;48.978;8.982;2022-10-17T10:59:16;11.10;;;3.03;;
71046;SDS011;58703;48.978;8.982;2022-10-17T11:07:06;4.28;;;2.00;;
71046;SDS011;58703;48.978;8.982;2022-10-17T11:17:35;4.07;;;2.30;;
71046;SDS011;58703;48.978;8.982;2022-10-17T11:22:46;4.72;;;1.85;;
71046;SDS011;58703;48.978;8.982;2022-10-17T11:25:33;3.55;;;2.05;;
71046;SDS011;58703;48.978;8.982;2022-10-17T11:28:01;7.03;;;1.80;;
71046;SDS011;58703;48.978;8.982;2022-10-17T11:33:31;4.05;;;1.60;;
71046;SDS011;58703;48.978;8.982;2022-10-17T11:36:18;6.65;;;2.70;;
71046;SDS011;58703;48.978;8.982;2022-10-17T11:38:47;3.67;;;1.73;;
71046;SDS011;58703;48.978;8.982;2022-10-17T11:41:22;6.18;;;2.17;;
71046;SDS011;58703;48.978;8.982;2022-10-17T11:43:55;6.82;;;1.73;;
71046;SDS011;58703;48.978;8.982;2022-10-17T11:46:26;7.30;;;2.40;;
71046;SDS011;58703;48.978;8.982;2022-10-17T11:49:11;6.30;;;2.00;;
71046;SDS011;58703;48.978;8.982;2022-10-17T11:51:45;2.63;;;1.67;;
71046;SDS011;58703;48.978;8.982;2022-10-17T11:54:40;5.07;;;2.20;;
71046;SDS011;58703;48.978;8.982;2022-10-17T12:05:49;11.27;;;2.27;;
71046;SDS011;58703;48.978;8.982;2022-10-17T12:11:27;3.75;;;1.92;;
71046;SDS011;58703;48.978;8.982;2022-10-17T12:13:54;1.42;;;1.33;;
71046;SDS011;58703;48.978;8.982;2022-10-17T12:21:25;4.07;;;1.30;;
71046;SDS011;58703;48.978;8.982;2022-10-17T12:23:52;8.77;;;1.73;;
71046;SDS011;58703;48.978;8.982;2022-10-17T12:26:28;2.50;;;1.42;;
71046;SDS011;58703;48.978;8.982;2022-10-17T12:28:55;3.38;;;1.30;;
71046;SDS011;58703;48.978;8.982;2022-10-17T12:31:22;4.97;;;1.57;;
71046;SDS011;58703;48.978;8.982;2022-10-17T12:44:34;5.23;;;1.67;;
71046;SDS011;58703;48.978;8.982;2022-10-17T13:00:02;3.70;;;1.40;;
71046;SDS011;58703;48.978;8.982;2022-10-17T13:02:36;6.15;;;1.75;;
71046;SDS011;58703;48.978;8.982;2022-10-17T13:05:07;3.70;;;1.48;;
71046;SDS011;58703;48.978;8.982;2022-10-17T13:07:39;1.67;;;1.55;;
71046;SDS011;58703;48.978;8.982;2022-10-17T13:11:12;3.00;;;1.47;;
71046;SDS011;58703;48.978;8.982;2022-10-17T13:13:49;8.25;;;1.92;;
71046;SDS011;58703;48.978;8.982;2022-10-17T13:16:27;3.47;;;1.40;;
71046;SDS011;58703;48.978;8.982;2022-10-17T13:18:53;3.72;;;1.65;;
71046;SDS011;58703;48.978;8.982;2022-10-17T13:21:19;3.72;;;1.45;;
71046;SDS011;58703;48.978;8.982;2022-10-17T13:23:46;3.77;;;1.30;;
71046;SDS011;58703;48.978;8.982;2022-10-17T13:26:15;5.93;;;1.75;;
71046;SDS011;58703;48.978;8.982;2022-10-17T13:29:05;2.67;;;1.83;;
71046;SDS011;58703;48.978;8.982;2022-10-17T13:31:36;3.38;;;1.60;;
71046;SDS011;58703;48.978;8.982;2022-10-17T13:34:04;4.22;;;1.58;;
71046;SDS011;58703;48.978;8.982;2022-10-17T13:36:39;3.77;;;1.40;;
71046;SDS011;58703;48.978;8.982;2022-10-17T13:39:08;3.97;;;1.33;;
71046;SDS011;58703;48.978;8.982;2022-10-17T13:41:37;2.25;;;1.30;;
71046;SDS011;58703;48.978;8.982;2022-10-17T13:44:08;4.45;;;1.55;;
71046;SDS011;58703;48.978;8.982;2022-10-17T13:46:37;2.90;;;1.50;;
71046;SDS011;58703;48.978;8.982;2022-10-17T13:49:08;1.97;;;1.30;;
71046;SDS011;58703;48.978;8.982;2022-10-17T13:51:43;5.47;;;1.35;;
71046;SDS011;58703;48.978;8.982;2022-10-17T13:57:04;2.45;;;1.77;;
71046;SDS011;58703;48.978;8.982;2022-10-17T13:59:45;2.60;;;1.63;;
71046;SDS011;58703;48.978;8.982;2022-10-17T14:02:15;5.10;;;1.40;;
71046;SDS011;58703;48.978;8.982;2022-10-17T14:04:43;6.57;;;1.52;;
71046;SDS011;58703;48.978;8.982;2022-10-17T14:07:30;4.97;;;2.10;;
71046;SDS011;58703;48.978;8.982;2022-10-17T14:10:01;2.97;;;1.65;;
71046;SDS011;58703;48.978;8.982;2022-10-17T14:12:31;3.67;;;1.45;;
71046;SDS011;58703;48.978;8.982;2022-10-17T14:14:58;10.90;;;2.00;;
71046;SDS011;58703;48.978;8.982;2022-10-17T14:17:28;5.32;;;1.55;;
71046;SDS011;58703;48.978;8.982;2022-10-17T14:19:55;5.95;;;1.85;;
71046;SDS011;58703;48.978;8.982;2022-10-17T14:24:51;5.10;;;1.98;;
71046;SDS011;58703;48.978;8.982;2022-10-17T14:27:31;4.40;;;1.60;;
71046;SDS011;58703;48.978;8.982;2022-10-17T14:30:01;4.35;;;1.83;;
71046;SDS011;58703;48.978;8.982;2022-10-17T14:32:31;4.53;;;1.60;;
71046;SDS011;58703;48.978;8.982;2022-10-17T14:35:00;4.72;;;1.75;;
71046;SDS011;58703;48.978;8.982;2022-10-17T14:39:59;2.53;;;1.27;;
71046;SDS011;58703;48.978;8.982;2022-10-17T14:42:27;6.80;;;1.98;;
71046;SDS011;58703;48.978;8.982;2022-10-17T14:44:53;3.65;;;1.75;;
71046;SDS011;58703;48.978;8.982;2022-10-17T14:47:23;5.43;;;2.00;;
71046;SDS011;58703;48.978;8.982;2022-10-17T14:50:03;4.20;;;1.80;;
71046;SDS011;58703;48.978;8.982;2022-10-17T14:52:32;2.63;;;1.60;;
71046;SDS011;58703;48.978;8.982;2022-10-17T14:54:59;5.22;;;2.05;;
71046;SDS011;58703;48.978;8.982;2022-10-17T14:57:44;8.40;;;1.92;;
71046;SDS011;58703;48.978;8.982;2022-10-17T15:00:14;4.40;;;1.90;;
71046;SDS011;58703;48.978;8.982;2022-10-17T15:02:41;2.22;;;1.55;;
71046;SDS011;58703;48.978;8.982;2022-10-17T15:05:07;5.07;;;1.60;;
71046;SDS011;58703;48.978;8.982;2022-10-17T15:07:33;3.72;;;1.95;;
71046;SDS011;58703;48.978;8.982;2022-10-17T15:09:58;8.57;;;2.17;;
71046;SDS011;58703;48.978;8.982;2022-10-17T15:12:24;4.93;;;1.85;;
71046;SDS011;58703;48.978;8.982;2022-10-17T15:14:51;3.05;;;2.10;;
71046;SDS011;58703;48.978;8.982;2022-10-17T15:17:18;1.97;;;1.50;;
71046;SDS011;58703;48.978;8.982;2022-10-17T15:19:46;5.10;;;2.05;;
71046;SDS011;58703;48.978;8.982;2022-10-17T15:22:13;4.90;;;1.75;;
71046;SDS011;58703;48.978;8.982;2022-10-17T15:24:40;7.00;;;1.55;;
71046;SDS011;58703;48.978;8.982;2022-10-17T15:27:16;3.43;;;1.63;;
71046;SDS011;58703;48.978;8.982;2022-10-17T15:29:49;5.15;;;2.08;;
71046;SDS011;58703;48.978;8.982;2022-10-17T15:32:14;9.20;;;1.50;;
71046;SDS011;58703;48.978;8.982;2022-10-17T15:34:40;3.80;;;1.75;;
71046;SDS011;58703;48.978;8.982;2022-10-17T15:37:12;4.47;;;1.67;;
71046;SDS011;58703;48.978;8.982;2022-10-17T15:39:42;3.20;;;1.83;;
71046;SDS011;58703;48.978;8.982;2022-10-17T15:42:08;5.70;;;1.60;;
71046;SDS011;58703;48.978;8.982;2022-10-17T15:44:36;3.50;;;1.47;;
71046;SDS011;58703;48.978;8.982;2022-10-17T15:47:02;4.72;;;1.80;;
71046;SDS011;58703;48.978;8.982;2022-10-17T15:49:28;4.93;;;1.67;;
71046;SDS011;58703;48.978;8.982;2022-10-17T15:51:53;3.23;;;1.67;;
71046;SDS011;58703;48.978;8.982;2022-10-17T15:54:19;3.88;;;1.67;;
71046;SDS011;58703;48.978;8.982;2022-10-17T15:56:46;6.57;;;1.90;;
71046;SDS011;58703;48.978;8.982;2022-10-17T15:59:19;5.15;;;1.55;;
71046;SDS011;58703;48.978;8.982;2022-10-17T16:01:50;5.70;;;1.58;;
71046;SDS011;58703;48.978;8.982;2022-10-17T16:04:15;2.67;;;1.70;;
71046;SDS011;58703;48.978;8.982;2022-10-17T16:06:42;4.68;;;1.50;;
71046;SDS011;58703;48.978;8.982;2022-10-17T16:09:09;6.88;;;1.90;;
71046;SDS011;58703;48.978;8.982;2022-10-17T16:11:38;5.30;;;1.60;;
71046;SDS011;58703;48.978;8.982;2022-10-17T16:14:12;4.82;;;1.80;;
71046;SDS011;58703;48.978;8.982;2022-10-17T16:16:40;3.22;;;1.63;;
71046;SDS011;58703;48.978;8.982;2022-10-17T16:19:06;4.43;;;2.10;;
71046;SDS011;58703;48.978;8.982;2022-10-17T16:21:33;4.60;;;1.83;;
71046;SDS011;58703;48.978;8.982;2022-10-17T16:24:01;9.00;;;1.70;;
71046;SDS011;58703;48.978;8.982;2022-10-17T16:26:28;6.97;;;2.05;;
71046;SDS011;58703;48.978;8.982;2022-10-17T16:28:53;6.85;;;2.08;;
71046;SDS011;58703;48.978;8.982;2022-10-17T16:33:53;5.43;;;1.73;;
71046;SDS011;58703;48.978;8.982;2022-10-17T16:36:21;5.88;;;1.80;;
71046;SDS011;58703;48.978;8.982;2022-10-17T16:38:47;9.98;;;1.80;;
71046;SDS011;58703;48.978;8.982;2022-10-17T16:41:22;9.25;;;2.05;;
71046;SDS011;58703;48.978;8.982;2022-10-17T16:43:49;8.30;;;2.83;;
71046;SDS011;58703;48.978;8.982;2022-10-17T16:46:16;9.40;;;2.23;;
71046;SDS011;58703;48.978;8.982;2022-10-17T16:48:42;7.50;;;1.92;;
71046;SDS011;58703;48.978;8.982;2022-10-17T16:51:09;6.65;;;1.77;;
71046;SDS011;58703;48.978;8.982;2022-10-17T16:53:35;4.70;;;1.90;;
71046;SDS011;58703;48.978;8.982;2022-10-17T16:56:08;7.85;;;1.77;;
71046;SDS011;58703;48.978;8.982;2022-10-17T16:58:35;11.60;;;2.20;;
71046;SDS011;58703;48.978;8.982;2022-10-17T17:01:01;7.22;;;2.15;;
71046;SDS011;58703;48.978;8.982;2022-10-17T17:03:29;15.80;;;2.20;;